Terminal Aerodrome Forecast
Issued by NWS

Home | Current Version | Previous Version | Text Only | Print | Product List | Glossary On
Versions: 1 2 3 4 5 6 7 8 9 10 11 12 13 14 15 16 17 18 19 20 21 22 23 24 25 26 27 28 29 30
000
FTUS41 KBOX 191732
TAFBAF
TAF
KBAF 191732Z 1918/2018 34005KT P6SM -SHRA SCT015 OVC025
     FM192000 31006KT P6SM -SHRA OVC025
     FM192200 31010G17KT P6SM VCSH OVC035
     FM200400 32008KT P6SM BKN045
     FM201500 32013G22KT P6SM BKN040=

USA.gov is the U.S. government's official web portal to all federal, state and local government web resources and services.